Time;durP1;ratioP1;P1;durP2;ratioP2;P2;SDS_P1;SDS_P2;PMS_P1;PMS_P2;Temp;Humidity;BMP_temperature;BMP_pressure;BME280_temperature;BME280_humidity;BME280_pressure;Samples;Min_cycle;Max_cycle;Signal;HPM_P1;HPM_P2
2023/12/14 00:00:28;;;;;;;16.23;15.33;;;5.90;99.90;;;;;;4996838;28;20256;-78
2023/12/14 00:02:56;;;;;;;16.10;15.20;;;5.90;99.90;;;;;;4977364;28;20269;-78
2023/12/14 00:05:23;;;;;;;15.90;15.00;;;5.80;99.90;;;;;;5004503;28;20223;-78
2023/12/14 00:07:49;;;;;;;15.70;14.80;;;5.90;99.90;;;;;;4984816;28;20212;-78
2023/12/14 00:10:17;;;;;;;15.60;14.70;;;5.80;99.90;;;;;;4990197;28;20638;-78
2023/12/14 00:12:44;;;;;;;15.33;14.53;;;5.80;99.90;;;;;;4994536;28;20190;-78
2023/12/14 00:15:11;;;;;;;15.37;14.57;;;5.80;99.90;;;;;;4996066;28;20709;-79
2023/12/14 00:17:38;;;;;;;16.37;15.30;;;5.90;99.90;;;;;;5013627;28;20278;-78
2023/12/14 00:20:08;;;;;;;15.70;14.80;;;5.90;99.90;;;;;;5013576;28;20203;-78
2023/12/14 00:22:35;;;;;;;15.90;15.00;;;5.90;99.90;;;;;;5013118;28;20278;-78
2023/12/14 00:25:02;;;;;;;15.87;14.97;;;5.90;99.90;;;;;;4988211;28;20676;-78
2023/12/14 00:27:29;;;;;;;15.80;14.80;;;5.90;99.90;;;;;;5009667;28;20203;-78
2023/12/14 00:29:56;;;;;;;15.93;15.03;;;5.90;99.90;;;;;;4979440;28;20416;-78
2023/12/14 00:32:22;;;;;;;16.23;15.10;;;5.90;99.90;;;;;;5016650;28;20203;-78
2023/12/14 00:34:49;;;;;;;15.40;14.60;;;5.90;99.90;;;;;;5001873;28;20219;-79
2023/12/14 00:37:17;;;;;;;15.03;14.23;;;5.90;99.90;;;;;;5006760;28;20200;-78
2023/12/14 00:39:44;;;;;;;15.50;14.60;;;5.90;99.90;;;;;;4993929;28;20219;-79
2023/12/14 00:42:11;;;;;;;15.10;14.30;;;5.90;99.90;;;;;;4992371;28;20625;-78
2023/12/14 00:44:38;;;;;;;15.03;14.23;;;5.90;99.90;;;;;;5004858;28;20301;-78
2023/12/14 00:47:05;;;;;;;15.30;14.50;;;5.90;99.90;;;;;;4989702;28;20228;-78
2023/12/14 00:49:31;;;;;;;15.40;14.60;;;6.00;99.90;;;;;;4987926;28;20206;-78
2023/12/14 00:51:58;;;;;;;15.60;14.80;;;6.00;99.90;;;;;;5004400;28;20230;-78
2023/12/14 00:54:26;;;;;;;15.17;14.37;;;5.90;99.90;;;;;;4988975;28;20684;-79
2023/12/14 00:56:53;;;;;;;15.67;14.80;;;5.90;99.90;;;;;;4995029;28;20244;-78
2023/12/14 00:59:20;;;;;;;15.43;14.63;;;6.00;99.90;;;;;;4996283;28;20251;-78
2023/12/14 01:01:46;;;;;;;15.80;14.90;;;6.00;99.90;;;;;;5010775;28;20230;-78
2023/12/14 01:04:13;;;;;;;16.40;15.40;;;6.00;99.90;;;;;;5013029;28;20684;-79
2023/12/14 01:06:40;;;;;;;15.87;14.97;;;6.00;99.90;;;;;;5008596;28;20699;-78
2023/12/14 01:09:08;;;;;;;16.13;15.13;;;6.00;99.90;;;;;;5007715;28;20223;-78
2023/12/14 01:11:36;;;;;;;15.37;14.57;;;6.00;99.90;;;;;;4995022;28;20294;-78
2023/12/14 01:14:02;;;;;;;15.77;14.87;;;6.00;99.90;;;;;;4994269;28;20224;-78
2023/12/14 01:16:30;;;;;;;15.77;14.87;;;6.00;99.90;;;;;;5012675;28;20241;-78
2023/12/14 01:18:57;;;;;;;16.00;15.10;;;6.00;99.90;;;;;;4991547;28;20211;-78
2023/12/14 01:21:24;;;;;;;15.93;14.93;;;6.00;99.90;;;;;;4989844;28;20268;-78
2023/12/14 01:23:52;;;;;;;15.77;14.97;;;6.10;99.90;;;;;;4991654;28;20266;-78
2023/12/14 01:26:19;;;;;;;16.50;15.47;;;6.10;99.90;;;;;;4981037;28;20223;-78
2023/12/14 01:28:47;;;;;;;16.57;15.67;;;6.00;99.90;;;;;;4992251;28;20763;-78
2023/12/14 01:31:14;;;;;;;15.57;14.77;;;6.10;99.90;;;;;;5017585;28;20187;-78
2023/12/14 01:33:40;;;;;;;16.17;15.20;;;6.10;99.90;;;;;;5011092;28;20199;-77
2023/12/14 01:36:08;;;;;;;16.00;15.10;;;6.10;99.90;;;;;;5011940;28;20719;-78
2023/12/14 01:38:35;;;;;;;15.70;14.80;;;6.20;99.90;;;;;;4983621;28;20207;-78
2023/12/14 01:41:01;;;;;;;16.17;15.17;;;6.10;99.90;;;;;;5012402;28;20196;-78
2023/12/14 01:43:28;;;;;;;16.43;15.53;;;6.20;99.90;;;;;;5010268;28;20203;-78
2023/12/14 01:45:56;;;;;;;16.63;15.53;;;6.20;99.90;;;;;;4987036;28;20293;-79
2023/12/14 01:48:23;;;;;;;16.20;15.30;;;6.20;99.90;;;;;;4991036;28;20684;-79
2023/12/14 01:50:50;;;;;;;15.60;14.77;;;6.20;99.90;;;;;;4988805;28;20199;-79
2023/12/14 01:53:17;;;;;;;15.80;14.90;;;6.20;99.90;;;;;;4994484;28;20204;-78
2023/12/14 01:55:43;;;;;;;15.43;14.53;;;6.20;99.90;;;;;;4997234;28;20304;-79
2023/12/14 01:58:10;;;;;;;15.40;14.50;;;6.30;99.90;;;;;;4988585;28;20255;-79
2023/12/14 02:00:42;;;;;;;15.37;14.47;;;6.30;99.90;;;;;;4988202;28;20201;-78
2023/12/14 02:03:10;;;;;;;15.37;14.50;;;6.30;99.90;;;;;;4992156;28;20199;-78
2023/12/14 02:05:37;;;;;;;15.00;14.20;;;6.30;99.90;;;;;;4991002;28;20644;-78
2023/12/14 02:08:04;;;;;;;15.20;14.30;;;6.30;99.90;;;;;;5012139;28;20858;-78
2023/12/14 02:10:31;;;;;;;15.67;14.70;;;6.30;99.90;;;;;;4994995;28;20205;-78
2023/12/14 02:12:58;;;;;;;15.27;14.43;;;6.30;99.90;;;;;;4995033;28;20713;-78
2023/12/14 02:15:25;;;;;;;16.37;15.30;;;6.30;99.90;;;;;;5010388;28;20246;-78
2023/12/14 02:17:51;;;;;;;16.60;15.60;;;6.40;99.90;;;;;;4989931;28;20758;-78
2023/12/14 02:20:19;;;;;;;16.40;15.33;;;6.30;99.90;;;;;;4998304;28;20196;-78
2023/12/14 02:22:53;;;;;;;16.10;15.13;;;6.30;99.90;;;;;;4995405;28;20223;-78
2023/12/14 02:25:21;;;;;;;16.70;15.70;;;6.30;99.90;;;;;;4997931;28;20292;-78
2023/12/14 02:27:48;;;;;;;17.10;16.00;;;6.30;99.90;;;;;;5010383;28;20738;-77
2023/12/14 02:30:16;;;;;;;16.10;15.20;;;6.30;99.90;;;;;;4998104;28;20285;-78
2023/12/14 02:32:42;;;;;;;16.27;15.23;;;6.30;99.90;;;;;;4994870;28;20675;-78
2023/12/14 02:35:09;;;;;;;16.20;15.30;;;6.30;99.90;;;;;;5011161;28;20845;-78
2023/12/14 02:37:37;;;;;;;15.77;14.87;;;6.30;99.90;;;;;;5012608;28;20229;-78
2023/12/14 02:40:07;;;;;;;16.07;15.07;;;6.20;99.90;;;;;;5014195;28;20207;-78
2023/12/14 02:42:34;;;;;;;15.33;14.43;;;6.20;99.90;;;;;;4993170;28;20240;-78
2023/12/14 02:45:01;;;;;;;15.80;14.90;;;6.20;99.90;;;;;;5007157;28;20269;-78
2023/12/14 02:47:29;;;;;;;14.80;14.00;;;6.10;99.90;;;;;;4997539;28;20233;-78
2023/12/14 02:49:55;;;;;;;15.90;14.97;;;6.10;99.90;;;;;;5007108;28;20586;-77
2023/12/14 02:52:23;;;;;;;15.23;14.33;;;6.10;99.90;;;;;;5003872;28;20204;-77
2023/12/14 02:54:50;;;;;;;14.90;13.83;;;6.10;99.90;;;;;;4991951;28;20232;-76
2023/12/14 02:57:18;;;;;;;15.20;14.30;;;6.10;99.90;;;;;;5013486;28;20227;-77
2023/12/14 02:59:45;;;;;;;16.10;15.10;;;6.10;99.90;;;;;;5006931;28;20199;-77
2023/12/14 03:02:12;;;;;;;15.83;14.93;;;6.10;99.90;;;;;;5003415;28;20199;-77
2023/12/14 03:04:39;;;;;;;15.97;15.07;;;6.10;99.90;;;;;;4988148;28;20647;-77
2023/12/14 03:07:06;;;;;;;15.70;14.80;;;6.10;99.90;;;;;;4990791;28;20221;-77
2023/12/14 03:09:33;;;;;;;15.60;14.70;;;6.10;99.90;;;;;;5011553;28;20203;-77
2023/12/14 03:12:00;;;;;;;15.80;14.90;;;6.10;99.90;;;;;;5008791;28;20197;-76
2023/12/14 03:14:33;;;;;;;16.50;15.50;;;6.10;99.90;;;;;;4992956;28;20300;-77
2023/12/14 03:17:00;;;;;;;15.90;15.00;;;6.10;99.90;;;;;;4992869;28;20201;-77
2023/12/14 03:19:26;;;;;;;16.00;14.80;;;6.10;99.90;;;;;;4989813;28;20208;-77
2023/12/14 03:21:53;;;;;;;15.57;14.67;;;6.20;99.90;;;;;;4986285;28;20208;-78
2023/12/14 03:24:20;;;;;;;15.40;14.40;;;6.20;99.90;;;;;;4992710;28;20220;-77
2023/12/14 03:26:47;;;;;;;14.80;14.00;;;6.20;99.90;;;;;;5014130;28;20290;-77
2023/12/14 03:29:14;;;;;;;15.80;14.63;;;6.20;99.90;;;;;;4986253;28;20207;-77
2023/12/14 03:31:42;;;;;;;15.80;14.90;;;6.20;99.90;;;;;;4992446;28;20208;-77
2023/12/14 03:34:08;;;;;;;15.40;14.50;;;6.20;99.90;;;;;;4995921;28;20223;-77
2023/12/14 03:36:35;;;;;;;15.10;14.20;;;6.30;99.90;;;;;;4996647;28;20199;-77
2023/12/14 03:39:02;;;;;;;14.30;13.40;;;6.30;99.90;;;;;;4995004;28;20266;-77
2023/12/14 03:41:29;;;;;;;15.03;14.13;;;6.20;99.90;;;;;;5008176;28;20241;-80
2023/12/14 03:43:55;;;;;;;14.53;13.63;;;6.20;99.90;;;;;;4988808;28;20235;-77
2023/12/14 03:46:22;;;;;;;15.50;14.50;;;6.30;99.90;;;;;;4989268;28;20227;-76
2023/12/14 03:48:49;;;;;;;14.93;13.93;;;6.20;99.90;;;;;;4992643;28;20210;-77
2023/12/14 03:51:19;;;;;;;14.77;13.87;;;6.20;99.90;;;;;;4992452;28;20204;-80
2023/12/14 03:53:46;;;;;;;15.00;14.10;;;6.20;99.90;;;;;;5008853;28;20239;-80
2023/12/14 03:56:13;;;;;;;15.67;14.77;;;6.20;99.90;;;;;;5000367;28;20231;-81
2023/12/14 03:58:39;;;;;;;15.63;14.70;;;6.20;99.90;;;;;;4991397;28;20208;-81
2023/12/14 04:01:06;;;;;;;16.70;15.60;;;6.20;99.90;;;;;;4989066;28;20249;-81
2023/12/14 04:03:33;;;;;;;15.30;14.40;;;6.20;99.90;;;;;;4996559;28;20261;-81
2023/12/14 04:06:01;;;;;;;16.20;15.20;;;6.20;99.90;;;;;;4986519;28;20225;-81
2023/12/14 04:08:28;;;;;;;15.37;14.47;;;6.20;99.90;;;;;;5014145;28;20198;-81
2023/12/14 04:10:55;;;;;;;15.40;14.50;;;6.20;99.90;;;;;;4995619;28;20208;-80
2023/12/14 04:13:22;;;;;;;17.10;16.10;;;6.20;99.90;;;;;;4996426;28;20206;-77
2023/12/14 04:19:10;;;;;;;16.17;15.27;;;6.20;99.90;;;;;;5005911;28;20210;-79
2023/12/14 04:21:38;;;;;;;16.20;15.10;;;6.20;99.90;;;;;;5004912;28;20231;-76
2023/12/14 04:24:05;;;;;;;16.20;15.20;;;6.20;99.90;;;;;;4992378;28;20201;-76
2023/12/14 04:26:32;;;;;;;16.37;15.47;;;6.20;99.90;;;;;;5009385;28;20212;-76
2023/12/14 04:28:59;;;;;;;16.60;15.60;;;6.20;99.90;;;;;;5011862;28;20278;-76
2023/12/14 04:31:25;;;;;;;16.30;15.40;;;6.20;99.90;;;;;;4984328;28;20209;-76
2023/12/14 04:33:52;;;;;;;16.17;15.27;;;6.20;99.90;;;;;;4982953;28;20265;-77
2023/12/14 04:36:19;;;;;;;16.17;15.27;;;6.20;99.90;;;;;;4996456;28;20227;-77
2023/12/14 04:38:47;;;;;;;16.33;15.43;;;6.30;99.90;;;;;;5007932;28;20204;-77
2023/12/14 04:41:14;;;;;;;16.53;15.53;;;6.30;99.90;;;;;;4995765;28;20767;-77
2023/12/14 04:43:41;;;;;;;16.57;15.57;;;6.30;99.90;;;;;;5013179;28;20199;-76
2023/12/14 04:46:08;;;;;;;16.53;15.53;;;6.30;99.90;;;;;;5004535;28;20219;-77
2023/12/14 04:48:35;;;;;;;16.60;15.60;;;6.30;99.90;;;;;;4983964;28;20232;-78
2023/12/14 04:51:01;;;;;;;15.97;15.07;;;6.30;99.90;;;;;;4992919;28;20205;-77
2023/12/14 04:53:28;;;;;;;16.50;15.60;;;6.30;99.90;;;;;;4995524;28;20238;-77
2023/12/14 04:55:56;;;;;;;15.87;14.97;;;6.30;99.90;;;;;;4989077;28;20283;-77
2023/12/14 04:58:23;;;;;;;16.03;15.13;;;6.30;99.90;;;;;;5001271;28;20294;-77
2023/12/14 05:00:50;;;;;;;16.93;15.83;;;6.30;99.90;;;;;;5004949;28;20204;-77
2023/12/14 05:03:17;;;;;;;16.30;15.40;;;6.30;99.90;;;;;;4989134;28;20212;-76
2023/12/14 05:05:44;;;;;;;16.57;15.47;;;6.30;99.90;;;;;;5015497;28;20242;-77
2023/12/14 05:08:10;;;;;;;16.63;15.67;;;6.30;99.90;;;;;;4997664;28;20289;-77
2023/12/14 05:10:37;;;;;;;17.00;16.00;;;6.30;99.90;;;;;;4995564;28;20231;-77
2023/12/14 05:13:06;;;;;;;16.60;15.60;;;6.30;99.90;;;;;;4989659;28;20204;-77
2023/12/14 05:15:33;;;;;;;17.63;16.53;;;6.30;99.90;;;;;;4989857;28;20234;-77
2023/12/14 05:18:00;;;;;;;17.93;16.83;;;6.30;99.90;;;;;;4988318;28;20219;-76
2023/12/14 05:20:27;;;;;;;17.47;16.40;;;6.30;99.90;;;;;;4996101;28;20204;-77
2023/12/14 05:22:53;;;;;;;18.50;17.40;;;6.20;99.90;;;;;;4996232;28;20258;-75
2023/12/14 05:25:20;;;;;;;18.33;17.30;;;6.20;99.90;;;;;;5003587;28;20607;-76
2023/12/14 05:27:47;;;;;;;18.63;17.40;;;6.20;99.90;;;;;;4993768;28;20318;-75
2023/12/14 05:30:15;;;;;;;18.13;17.13;;;6.20;99.90;;;;;;4984873;28;20706;-77
2023/12/14 05:32:42;;;;;;;19.10;18.00;;;6.20;99.90;;;;;;4999446;28;20282;-77
2023/12/14 05:35:10;;;;;;;18.97;17.90;;;6.20;99.90;;;;;;5011981;28;20219;-77
2023/12/14 05:37:37;;;;;;;19.37;18.20;;;6.30;99.90;;;;;;5012217;28;20199;-77
2023/12/14 05:40:05;;;;;;;19.47;18.20;;;6.30;99.90;;;;;;4992188;28;20748;-77
2023/12/14 05:42:31;;;;;;;19.63;18.43;;;6.20;99.90;;;;;;5011724;28;21700;-77
2023/12/14 05:44:58;;;;;;;18.90;17.70;;;6.20;99.90;;;;;;4994376;28;20634;-77
2023/12/14 05:47:30;;;;;;;19.67;18.47;;;6.20;99.90;;;;;;5011721;28;20221;-76
2023/12/14 05:49:56;;;;;;;19.00;17.90;;;6.20;99.90;;;;;;4983354;28;20205;-77
2023/12/14 05:52:23;;;;;;;20.67;19.27;;;6.20;99.90;;;;;;5011177;28;20203;-76
2023/12/14 05:54:50;;;;;;;20.40;19.03;;;6.20;99.90;;;;;;5012406;28;20243;-76
2023/12/14 05:57:17;;;;;;;19.97;18.77;;;6.20;99.90;;;;;;4996670;28;20569;-78
2023/12/14 05:59:44;;;;;;;19.83;18.63;;;6.20;99.90;;;;;;4989914;28;20219;-77
2023/12/14 06:02:11;;;;;;;21.33;19.87;;;6.20;99.90;;;;;;5003815;28;20217;-76
2023/12/14 06:04:39;;;;;;;20.47;19.17;;;6.20;99.90;;;;;;4990507;28;21009;-77
2023/12/14 06:07:06;;;;;;;20.93;19.53;;;6.20;99.90;;;;;;4994126;28;20711;-77
2023/12/14 06:09:33;;;;;;;21.20;19.80;;;6.20;99.90;;;;;;5007143;28;20267;-77
2023/12/14 06:12:00;;;;;;;20.77;19.37;;;6.20;99.90;;;;;;4991470;28;20206;-76
2023/12/14 06:14:27;;;;;;;21.73;20.33;;;6.10;99.90;;;;;;4994442;28;20273;-77
2023/12/14 06:16:54;;;;;;;21.53;20.13;;;6.20;99.90;;;;;;4995382;28;20212;-76
2023/12/14 06:19:21;;;;;;;21.10;19.70;;;6.20;99.90;;;;;;4994191;28;20230;-76
2023/12/14 06:21:49;;;;;;;21.30;20.00;;;6.10;99.90;;;;;;4993802;28;20233;-77
2023/12/14 06:24:16;;;;;;;21.03;19.70;;;6.20;99.90;;;;;;4993208;28;20286;-77
2023/12/14 06:26:43;;;;;;;20.37;19.07;;;6.20;99.90;;;;;;4987144;28;20264;-77
2023/12/14 06:29:11;;;;;;;20.13;18.93;;;6.20;99.90;;;;;;5011808;28;20200;-77
2023/12/14 06:31:38;;;;;;;19.70;18.40;;;6.20;99.90;;;;;;5007470;28;20230;-78
2023/12/14 06:34:04;;;;;;;20.10;18.80;;;6.20;99.90;;;;;;5007113;28;20200;-78
2023/12/14 06:36:32;;;;;;;16.33;15.32;;;6.20;99.90;;;;;;5010152;28;20794;-78
2023/12/14 06:39:01;;;;;;;11.93;11.13;;;6.20;99.90;;;;;;4986066;28;20822;-77
2023/12/14 06:41:29;;;;;;;18.60;17.50;;;6.20;99.90;;;;;;5012989;28;20253;-77
2023/12/14 06:43:56;;;;;;;18.70;17.50;;;6.20;99.90;;;;;;4993324;28;20635;-77
2023/12/14 06:46:26;;;;;;;18.27;17.07;;;6.30;99.90;;;;;;5010442;28;20288;-80
2023/12/14 06:48:53;;;;;;;18.10;17.10;;;6.30;99.90;;;;;;4995251;28;20243;-80
2023/12/14 06:51:20;;;;;;;18.67;17.57;;;6.30;99.90;;;;;;4995997;28;20200;-81
2023/12/14 06:53:47;;;;;;;18.60;17.43;;;6.30;99.90;;;;;;4992472;28;20211;-81
2023/12/14 06:56:15;;;;;;;18.53;17.33;;;6.30;99.90;;;;;;5009796;28;20272;-80
2023/12/14 06:58:43;;;;;;;19.27;18.07;;;6.30;99.90;;;;;;4996285;28;20579;-80
2023/12/14 07:01:14;;;;;;;18.30;17.20;;;6.30;99.90;;;;;;5010413;28;20203;-79
2023/12/14 07:03:41;;;;;;;19.13;18.03;;;6.30;99.90;;;;;;5011220;28;20195;-81
2023/12/14 07:06:08;;;;;;;18.30;17.00;;;6.40;99.90;;;;;;4994023;28;20222;-80
2023/12/14 07:08:35;;;;;;;19.20;17.90;;;6.40;99.90;;;;;;5012240;28;20204;-81
2023/12/14 07:11:02;;;;;;;18.17;16.97;;;6.40;99.90;;;;;;4992039;28;20618;-81
2023/12/14 07:13:30;;;;;;;20.00;18.50;;;6.40;99.90;;;;;;5001760;28;20425;-79
2023/12/14 07:15:57;;;;;;;18.88;17.75;;;6.40;99.90;;;;;;5019112;28;20442;-79
2023/12/14 07:18:24;;;;;;;14.45;13.55;;;6.40;99.90;;;;;;4991771;28;20501;-78
2023/12/14 07:20:50;;;;;;;20.00;18.70;;;6.40;99.90;;;;;;4985827;28;20215;-79
2023/12/14 07:23:17;;;;;;;19.47;18.17;;;6.40;99.90;;;;;;5010000;28;20203;-77
2023/12/14 07:25:44;;;;;;;19.00;17.80;;;6.40;99.90;;;;;;4996119;28;20224;-78
2023/12/14 07:28:11;;;;;;;19.00;17.80;;;6.40;99.90;;;;;;5001426;28;20269;-77
2023/12/14 07:30:39;;;;;;;19.83;18.43;;;6.40;99.90;;;;;;4992489;28;20199;-77
2023/12/14 07:33:06;;;;;;;20.13;18.60;;;6.40;99.90;;;;;;5013722;28;20202;-78
2023/12/14 07:35:32;;;;;;;19.93;18.57;;;6.40;99.90;;;;;;4992383;28;20239;-78
2023/12/14 07:37:59;;;;;;;19.77;18.43;;;6.40;99.90;;;;;;5002931;28;20211;-79
2023/12/14 07:40:26;;;;;;;19.17;17.80;;;6.40;99.90;;;;;;4994673;28;20231;-78
2023/12/14 07:42:53;;;;;;;19.07;17.87;;;6.40;99.90;;;;;;5004125;28;20193;-77
2023/12/14 07:45:20;;;;;;;18.50;17.30;;;6.40;99.90;;;;;;5012982;28;20628;-77
2023/12/14 07:47:48;;;;;;;18.87;17.67;;;6.40;99.90;;;;;;4997006;28;20227;-77
2023/12/14 07:50:15;;;;;;;18.50;17.30;;;6.50;99.90;;;;;;4991708;28;20639;-77
2023/12/14 07:52:41;;;;;;;18.43;17.13;;;6.50;99.90;;;;;;4996625;28;20215;-77
2023/12/14 07:55:09;;;;;;;17.60;16.50;;;6.50;99.90;;;;;;5016071;28;20228;-78
2023/12/14 07:57:35;;;;;;;18.20;17.00;;;6.50;99.90;;;;;;5008120;28;20227;-78
2023/12/14 08:00:03;;;;;;;18.10;16.90;;;6.50;99.90;;;;;;5007406;28;20258;-77
2023/12/14 08:02:32;;;;;;;18.03;16.90;;;6.50;99.90;;;;;;5027042;28;20639;-78
2023/12/14 08:05:00;;;;;;;18.87;17.53;;;6.50;99.90;;;;;;4990529;28;20231;-78
2023/12/14 08:07:29;;;;;;;18.97;17.67;;;6.50;99.90;;;;;;4992871;28;20619;-77
2023/12/14 08:09:55;;;;;;;18.77;17.37;;;6.50;99.90;;;;;;5019790;28;20199;-77
2023/12/14 08:12:23;;;;;;;20.27;18.73;;;6.40;99.90;;;;;;4988660;28;20196;-77
2023/12/14 08:14:49;;;;;;;19.83;18.37;;;6.50;99.90;;;;;;4993277;28;20768;-77
2023/12/14 08:17:16;;;;;;;19.43;18.13;;;6.50;99.90;;;;;;4995840;28;20203;-77
2023/12/14 08:19:43;;;;;;;19.00;17.80;;;6.50;99.90;;;;;;5009566;28;20203;-77
2023/12/14 08:22:12;;;;;;;18.37;17.20;;;6.50;99.90;;;;;;5007796;28;20197;-77
2023/12/14 08:24:40;;;;;;;19.93;18.63;;;6.50;99.90;;;;;;5008442;28;20339;-77
2023/12/14 08:27:07;;;;;;;20.23;18.83;;;6.60;99.90;;;;;;5017004;28;20268;-77
2023/12/14 08:29:33;;;;;;;21.97;20.37;;;6.60;99.90;;;;;;5005600;28;20194;-78
2023/12/14 08:32:00;;;;;;;20.10;18.80;;;6.60;99.90;;;;;;5017487;28;20192;-77
2023/12/14 08:34:28;;;;;;;19.73;18.43;;;6.60;99.90;;;;;;5019294;28;20251;-77
2023/12/14 08:36:54;;;;;;;20.23;19.00;;;6.70;99.90;;;;;;5006845;28;20197;-77
2023/12/14 08:39:23;;;;;;;20.07;18.77;;;6.70;99.90;;;;;;4992397;28;20250;-78
2023/12/14 08:46:08;;;;;;;18.30;17.17;;;6.80;99.90;;;;;;5001920;28;20219;-78
2023/12/14 08:48:57;;;;;;;17.57;16.57;;;6.90;99.90;;;;;;5000097;28;20218;-80
2023/12/14 08:51:26;;;;;;;18.10;16.80;;;7.00;99.90;;;;;;5011052;28;20207;-80
2023/12/14 08:53:52;;;;;;;18.23;17.13;;;7.00;99.90;;;;;;5010094;28;20276;-81
2023/12/14 08:56:21;;;;;;;18.00;16.90;;;7.10;99.90;;;;;;4986672;28;20232;-79
2023/12/14 08:58:48;;;;;;;17.93;16.73;;;7.20;99.90;;;;;;5008570;28;20199;-81
2023/12/14 09:01:20;;;;;;;17.10;16.10;;;7.30;99.90;;;;;;5007349;28;20196;-80
2023/12/14 09:03:47;;;;;;;18.50;17.30;;;7.40;99.90;;;;;;4992141;28;20263;-81
2023/12/14 09:06:15;;;;;;;19.03;17.63;;;7.40;99.90;;;;;;5015281;28;20676;-81
2023/12/14 09:08:41;;;;;;;17.43;16.37;;;7.50;99.90;;;;;;5001308;28;20700;-80
2023/12/14 09:11:08;;;;;;;17.33;16.33;;;7.60;99.90;;;;;;5005508;28;20250;-80
2023/12/14 09:13:37;;;;;;;16.53;15.50;;;7.60;99.90;;;;;;4988888;28;20205;-80
2023/12/14 09:16:04;;;;;;;7.47;6.87;;;7.60;99.90;;;;;;4991454;28;20249;-80
2023/12/14 09:18:30;;;;;;;6.47;5.90;;;7.70;99.90;;;;;;4986098;28;20205;-80
2023/12/14 09:20:57;;;;;;;6.80;6.20;;;7.80;99.90;;;;;;5013802;28;20258;-81
2023/12/14 09:23:24;;;;;;;12.43;11.53;;;7.80;99.90;;;;;;5012944;28;20718;-81
2023/12/14 09:25:51;;;;;;;6.17;5.60;;;7.80;99.90;;;;;;5021106;28;20247;-81
2023/12/14 09:28:18;;;;;;;5.70;5.20;;;7.80;99.90;;;;;;4996507;28;20897;-81
2023/12/14 09:30:46;;;;;;;7.23;6.13;;;7.80;99.90;;;;;;5019088;28;20192;-81
2023/12/14 09:33:13;;;;;;;5.90;5.40;;;7.80;99.90;;;;;;5004129;28;20210;-80
2023/12/14 09:35:41;;;;;;;5.53;5.03;;;7.80;99.90;;;;;;5010945;28;20216;-81
2023/12/14 09:38:08;;;;;;;5.30;4.90;;;7.90;99.90;;;;;;4988392;28;20204;-81
2023/12/14 09:40:35;;;;;;;5.07;4.67;;;8.00;99.90;;;;;;4992007;28;20295;-81
2023/12/14 09:43:03;;;;;;;5.00;4.60;;;8.20;99.90;;;;;;5010056;28;20220;-81
2023/12/14 09:45:41;;;;;;;11.00;10.37;;;8.20;99.90;;;;;;4989306;28;20275;-81
2023/12/14 09:48:30;;;;;;;13.17;12.37;;;8.30;99.90;;;;;;4991501;28;20685;-81
2023/12/14 09:51:06;;;;;;;9.53;8.83;;;8.40;99.90;;;;;;4981916;28;20201;-82
2023/12/14 09:53:46;;;;;;;10.60;10.00;;;8.40;99.90;;;;;;5017269;28;20806;-81
2023/12/14 09:56:19;;;;;;;11.63;10.93;;;8.50;99.90;;;;;;4990533;28;20323;-82
2023/12/14 09:58:48;;;;;;;11.80;11.10;;;8.50;99.90;;;;;;4986774;28;20197;-78
2023/12/14 10:01:25;;;;;;;12.50;11.80;;;8.50;99.90;;;;;;5006011;28;20234;-78
2023/12/14 10:04:08;;;;;;;13.30;12.60;;;8.50;99.90;;;;;;5014216;28;20197;-82
2023/12/14 10:06:35;;;;;;;4.50;4.20;;;8.50;99.90;;;;;;4998028;28;20206;-82
2023/12/14 10:09:03;;;;;;;8.37;7.77;;;8.50;99.90;;;;;;4986148;28;20649;-83
2023/12/14 10:11:30;;;;;;;7.20;6.80;;;8.60;99.90;;;;;;4990172;28;20228;-82
2023/12/14 10:13:56;;;;;;;5.90;5.50;;;8.70;99.90;;;;;;4989743;28;20196;-78
2023/12/14 10:16:31;;;;;;;4.00;3.73;;;8.70;99.90;;;;;;4996920;28;20219;-78
2023/12/14 10:19:00;;;;;;;4.30;3.90;;;8.70;99.90;;;;;;5007243;28;20238;-80
2023/12/14 10:21:28;;;;;;;10.73;10.03;;;8.60;99.90;;;;;;4988991;28;20216;-78
2023/12/14 10:23:56;;;;;;;7.50;7.00;;;8.50;99.90;;;;;;4990983;28;20204;-78
2023/12/14 10:26:25;;;;;;;9.20;8.53;;;8.50;99.90;;;;;;5013927;28;20232;-78
2023/12/14 10:28:52;;;;;;;7.07;6.67;;;8.50;99.90;;;;;;4994560;28;20220;-79
2023/12/14 10:31:21;;;;;;;7.20;6.60;;;8.60;99.90;;;;;;4989178;28;20198;-79
2023/12/14 10:33:48;;;;;;;8.00;7.40;;;8.50;99.90;;;;;;5001445;28;20224;-79
2023/12/14 10:36:21;;;;;;;12.47;11.67;;;8.60;99.90;;;;;;5007654;28;20243;-79
2023/12/14 10:38:49;;;;;;;9.27;8.57;;;8.50;99.90;;;;;;4998809;28;20215;-79
2023/12/14 10:41:18;;;;;;;7.70;7.20;;;8.60;99.90;;;;;;5033680;28;20228;-79
2023/12/14 10:43:47;;;;;;;8.00;7.40;;;8.50;99.90;;;;;;5000638;28;20208;-79
2023/12/14 10:46:15;;;;;;;6.97;6.57;;;8.60;99.90;;;;;;5007951;28;20243;-79
2023/12/14 10:48:43;;;;;;;14.90;14.00;;;8.60;99.90;;;;;;4994861;28;20221;-78
2023/12/14 10:51:12;;;;;;;8.03;7.53;;;8.50;99.90;;;;;;4990632;28;20559;-79
2023/12/14 10:53:43;;;;;;;7.87;7.17;;;8.50;99.90;;;;;;4987425;28;20581;-79
2023/12/14 10:56:11;;;;;;;14.70;13.90;;;8.50;99.90;;;;;;5011129;28;20224;-78
2023/12/14 10:58:47;;;;;;;6.70;5.93;;;8.60;99.90;;;;;;4988376;28;20225;-79
2023/12/14 11:01:16;;;;;;;6.97;6.47;;;8.70;99.90;;;;;;5010702;28;20238;-79
2023/12/14 11:03:43;;;;;;;10.33;9.57;;;8.70;99.90;;;;;;4989272;28;20469;-79
2023/12/14 11:06:23;;;;;;;7.37;6.80;;;8.70;99.90;;;;;;4999531;28;20226;-79
2023/12/14 11:08:54;;;;;;;7.83;7.30;;;8.80;99.90;;;;;;5007196;28;20237;-78
2023/12/14 11:11:22;;;;;;;5.60;5.00;;;8.90;99.90;;;;;;4994918;28;20240;-80
2023/12/14 11:13:53;;;;;;;14.73;13.73;;;8.90;99.90;;;;;;5019336;28;20203;-83
2023/12/14 11:16:24;;;;;;;9.87;9.27;;;9.00;99.90;;;;;;4987829;28;20225;-84
2023/12/14 11:19:30;;;;;;;14.33;13.53;;;8.90;99.90;;;;;;4991910;28;20192;-83
2023/12/14 11:22:15;;;;;;;8.20;7.60;;;9.00;99.90;;;;;;5004578;28;20584;-83
2023/12/14 11:24:54;;;;;;;5.03;4.63;;;9.00;99.90;;;;;;4989434;28;20280;-83
2023/12/14 11:27:27;;;;;;;9.63;9.03;;;9.00;99.90;;;;;;5013311;28;20197;-83
2023/12/14 11:29:57;;;;;;;5.03;4.63;;;9.00;99.90;;;;;;4988381;28;20623;-84
2023/12/14 11:32:26;;;;;;;4.60;4.30;;;8.90;99.90;;;;;;4989854;28;20213;-83
2023/12/14 11:35:02;;;;;;;7.77;7.07;;;8.90;99.90;;;;;;4988781;28;20240;-83
2023/12/14 11:41:19;;;;;;;9.43;8.73;;;8.90;99.90;;;;;;5528058;22;20230;-81
2023/12/14 11:43:46;;;;;;;4.53;4.13;;;9.00;99.90;;;;;;5016169;28;20212;-81
2023/12/14 11:46:13;;;;;;;7.70;6.93;;;9.00;99.90;;;;;;5015947;28;20220;-80
2023/12/14 11:48:40;;;;;;;7.60;7.00;;;8.90;99.90;;;;;;5023900;28;20281;-80
2023/12/14 11:51:07;;;;;;;8.37;7.77;;;8.80;99.90;;;;;;5008127;28;20204;-81
2023/12/14 11:53:37;;;;;;;8.77;8.07;;;8.80;99.90;;;;;;5037395;28;20208;-81
2023/12/14 11:56:06;;;;;;;12.17;11.47;;;8.80;99.90;;;;;;5008391;28;20228;-82
2023/12/14 11:58:34;;;;;;;14.10;13.20;;;8.90;99.90;;;;;;5023786;28;20251;-81
2023/12/14 12:01:12;;;;;;;10.90;10.20;;;9.00;99.90;;;;;;5010454;28;20200;-82
2023/12/14 12:03:39;;;;;;;9.63;9.03;;;9.10;99.90;;;;;;5016410;28;20208;-82
2023/12/14 12:06:06;;;;;;;7.47;6.87;;;9.20;99.90;;;;;;5040187;28;20762;-82
2023/12/14 12:08:42;;;;;;;6.83;6.33;;;9.30;99.90;;;;;;5007083;28;20225;-82
2023/12/14 12:11:08;;;;;;;5.10;4.60;;;9.40;99.90;;;;;;5020781;28;20204;-81
2023/12/14 12:13:36;;;;;;;7.50;6.90;;;9.40;99.90;;;;;;5020770;28;20205;-83
2023/12/14 12:16:04;;;;;;;4.97;4.57;;;9.40;99.90;;;;;;5016924;28;20227;-79
2023/12/14 12:18:30;;;;;;;5.53;5.03;;;9.30;99.90;;;;;;5041427;28;20285;-78
2023/12/14 12:21:00;;;;;;;7.80;7.30;;;9.20;99.90;;;;;;5033732;28;20212;-78
2023/12/14 12:23:27;;;;;;;4.50;4.20;;;9.20;99.90;;;;;;5033909;28;20232;-78
2023/12/14 12:25:55;;;;;;;7.73;7.13;;;9.10;99.90;;;;;;5025047;28;20701;-79
2023/12/14 12:28:22;;;;;;;9.90;9.20;;;9.10;99.90;;;;;;5015604;28;20290;-80
2023/12/14 12:30:50;;;;;;;13.70;12.80;;;9.00;99.90;;;;;;5034936;28;20205;-81
2023/12/14 12:33:17;;;;;;;13.73;12.93;;;9.10;99.90;;;;;;5032639;28;20216;-79
2023/12/14 12:35:44;;;;;;;13.30;12.50;;;9.40;99.90;;;;;;5014555;28;20749;-79
2023/12/14 12:38:11;;;;;;;12.80;12.00;;;9.20;99.90;;;;;;5015080;28;20201;-79
2023/12/14 12:40:38;;;;;;;13.40;12.60;;;9.10;99.90;;;;;;5014313;28;20216;-79
2023/12/14 12:43:05;;;;;;;13.23;12.40;;;8.90;99.90;;;;;;5014690;28;20204;-82
2023/12/14 12:45:32;;;;;;;13.47;12.57;;;8.70;99.90;;;;;;5015412;28;20259;-79
2023/12/14 12:48:00;;;;;;;14.20;12.90;;;8.50;99.90;;;;;;5034315;28;20204;-79
2023/12/14 12:50:27;;;;;;;12.90;12.20;;;8.20;99.90;;;;;;5014720;28;20230;-83
2023/12/14 12:52:53;;;;;;;13.07;12.27;;;8.10;99.90;;;;;;5017755;28;20228;-81
2023/12/14 12:55:20;;;;;;;12.47;11.77;;;8.00;99.90;;;;;;5032387;28;20219;-79